createdAt,value
2018-05-13T00:01:12.804Z,6.30
2018-05-13T00:06:15.296Z,6.60
2018-05-13T00:11:17.791Z,6.43
2018-05-13T00:16:20.292Z,7.90
2018-05-13T00:21:22.787Z,7.03
2018-05-13T00:26:25.280Z,7.20
2018-05-13T00:31:27.768Z,6.80
2018-05-13T00:36:30.252Z,7.63
2018-05-13T00:41:32.743Z,7.77
2018-05-13T00:46:35.231Z,7.17
2018-05-13T00:51:37.717Z,7.30
2018-05-13T00:56:40.200Z,8.50
2018-05-13T01:01:42.700Z,7.07
2018-05-13T01:06:45.203Z,8.67
2018-05-13T01:11:47.696Z,8.07
2018-05-13T01:16:50.179Z,7.30
2018-05-13T01:21:52.678Z,8.87
2018-05-13T01:26:55.164Z,9.43
2018-05-13T01:31:57.642Z,9.60
2018-05-13T01:37:00.152Z,9.43
2018-05-13T01:42:02.654Z,9.47
2018-05-13T01:47:05.140Z,9.67
2018-05-13T01:52:07.647Z,9.73
2018-05-13T01:57:10.140Z,9.30
2018-05-13T02:02:12.636Z,10.20
2018-05-13T02:07:15.123Z,10.10
2018-05-13T02:12:18.400Z,10.80
2018-05-13T02:17:20.909Z,10.83
2018-05-13T02:22:23.399Z,10.93
2018-05-13T02:27:25.888Z,11.37
2018-05-13T02:32:28.384Z,10.90
2018-05-13T02:37:30.870Z,11.93
2018-05-13T02:42:33.400Z,11.70
2018-05-13T02:47:35.887Z,11.47
2018-05-13T02:52:38.383Z,11.70
2018-05-13T02:57:40.871Z,11.40
2018-05-13T03:02:43.365Z,11.47
2018-05-13T03:07:45.868Z,12.80
2018-05-13T03:12:48.367Z,11.80
2018-05-13T03:17:50.857Z,12.27
2018-05-13T03:22:53.335Z,12.70
2018-05-13T03:27:55.835Z,13.07
2018-05-13T03:32:58.319Z,11.97
2018-05-13T03:38:00.820Z,12.40
2018-05-13T03:43:03.321Z,12.00
2018-05-13T03:48:05.819Z,14.03
2018-05-13T03:53:08.319Z,12.60
2018-05-13T03:58:10.838Z,12.23
2018-05-13T04:03:14.108Z,11.97
2018-05-13T04:14:08.729Z,13.27
2018-05-13T04:19:11.245Z,13.17
2018-05-13T04:24:13.759Z,13.27
2018-05-13T04:29:17.031Z,14.33
2018-05-13T04:34:19.549Z,13.83
2018-05-13T04:39:22.075Z,13.90
2018-05-13T04:44:24.610Z,13.70
2018-05-13T04:49:27.139Z,14.17
2018-05-13T04:54:31.435Z,14.27
2018-05-13T04:59:33.933Z,14.43
2018-05-13T05:04:37.437Z,13.53
2018-05-13T05:09:39.972Z,14.47
2018-05-13T05:14:42.481Z,14.30
2018-05-13T05:19:45.002Z,14.20
2018-05-13T05:24:47.518Z,14.73
2018-05-13T05:29:51.029Z,14.47
2018-05-13T05:34:53.552Z,14.90
2018-05-13T05:39:56.066Z,14.67
2018-05-13T05:44:59.396Z,15.30
2018-05-13T05:50:01.933Z,14.40
2018-05-13T05:55:04.448Z,14.23
2018-05-13T06:00:06.992Z,15.03
2018-05-13T06:05:09.520Z,12.90
2018-05-13T06:10:12.044Z,13.70
2018-05-13T06:15:15.331Z,14.57
2018-05-13T06:20:17.860Z,13.00
2018-05-13T06:25:21.235Z,13.80
2018-05-13T06:30:24.460Z,14.23
2018-05-13T06:35:27.021Z,13.40
2018-05-13T06:40:29.544Z,13.30
2018-05-13T06:45:32.068Z,12.80
2018-05-13T06:50:35.347Z,14.50
2018-05-13T06:55:38.067Z,14.40
2018-05-13T07:00:41.331Z,13.93
2018-05-13T07:05:43.847Z,12.43
2018-05-13T07:10:46.361Z,15.07
2018-05-13T07:15:50.040Z,14.70
2018-05-13T07:20:52.564Z,13.17
2018-05-13T07:25:55.086Z,13.93
2018-05-13T07:30:57.588Z,15.43
2018-05-13T07:36:00.092Z,15.30
2018-05-13T07:41:02.630Z,13.80
2018-05-13T07:46:05.143Z,16.30
2018-05-13T07:51:08.420Z,15.40
2018-05-13T07:56:10.935Z,16.73
2018-05-13T08:01:13.448Z,15.47
2018-05-13T08:06:16.950Z,16.53
2018-05-13T08:11:20.115Z,15.10
2018-05-13T08:16:22.628Z,17.03
2018-05-13T08:21:25.129Z,15.90
2018-05-13T08:26:27.636Z,13.37
2018-05-13T08:31:30.922Z,14.80
2018-05-13T08:36:33.448Z,16.60
2018-05-13T08:41:36.723Z,17.67
2018-05-13T08:46:39.259Z,13.67
2018-05-13T08:51:42.535Z,17.77
2018-05-13T08:56:45.052Z,17.27
2018-05-13T09:01:48.327Z,13.40
2018-05-13T09:06:50.839Z,16.60
2018-05-13T09:11:53.353Z,15.03
2018-05-13T09:16:55.892Z,15.60
2018-05-13T09:21:58.408Z,16.87
2018-05-13T09:27:00.916Z,14.63
2018-05-13T09:32:03.436Z,14.27
2018-05-13T09:37:06.711Z,10.97
2018-05-13T09:42:09.236Z,17.23
2018-05-13T09:47:12.575Z,12.57
2018-05-13T09:52:15.028Z,12.60
2018-05-13T09:57:18.312Z,13.03
2018-05-13T10:02:20.868Z,11.27
2018-05-13T10:07:23.360Z,18.20
2018-05-13T10:12:25.867Z,16.80
2018-05-13T10:17:28.367Z,13.53
2018-05-13T10:22:30.927Z,11.47
2018-05-13T10:27:33.444Z,12.97
2018-05-13T10:32:35.947Z,13.23
2018-05-13T10:37:38.487Z,20.40
2018-05-13T10:42:41.780Z,18.93
2018-05-13T10:47:44.287Z,13.80
2018-05-13T10:52:46.829Z,13.87
2018-05-13T10:57:49.390Z,13.20
2018-05-13T11:02:51.960Z,20.83
2018-05-13T11:07:54.472Z,17.57
2018-05-13T11:12:57.756Z,17.20
2018-05-13T11:18:00.276Z,15.27
2018-05-13T11:23:03.559Z,19.90
2018-05-13T11:28:06.082Z,14.27
2018-05-13T11:33:09.356Z,16.07
2018-05-13T11:38:11.869Z,16.50
2018-05-13T11:43:14.390Z,14.77
2018-05-13T11:48:16.909Z,16.80
2018-05-13T11:53:19.420Z,21.17
2018-05-13T11:58:21.937Z,13.40
2018-05-13T12:03:24.452Z,13.83
2018-05-13T12:08:27.728Z,14.03
2018-05-13T12:13:30.244Z,33.33
2018-05-13T12:18:33.516Z,16.43
2018-05-13T12:23:36.036Z,20.87
2018-05-13T12:28:38.548Z,18.20
2018-05-13T12:33:41.819Z,23.70
2018-05-13T12:38:44.315Z,30.70
2018-05-13T12:43:46.831Z,27.20
2018-05-13T12:48:49.363Z,33.63
2018-05-13T12:53:51.875Z,42.77
2018-05-13T12:58:54.473Z,59.13
2018-05-13T13:03:56.984Z,63.00
2018-05-13T13:08:59.505Z,62.70
2018-05-13T13:14:02.012Z,76.23
2018-05-13T13:19:05.295Z,70.17
2018-05-13T13:24:07.803Z,72.03
2018-05-13T13:29:10.316Z,66.00
2018-05-13T13:34:12.849Z,66.17
2018-05-13T13:39:15.360Z,60.37
2018-05-13T13:44:17.888Z,146.90
2018-05-13T13:49:21.188Z,109.37
2018-05-13T13:54:23.722Z,89.17
2018-05-13T13:59:26.295Z,67.03
2018-05-13T14:04:28.784Z,59.03
2018-05-13T14:09:32.056Z,63.97
2018-05-13T14:14:35.406Z,65.03
2018-05-13T14:19:38.666Z,57.40
2018-05-13T14:24:41.216Z,58.90
2018-05-13T14:29:44.491Z,58.10
2018-05-13T14:34:47.240Z,53.50
2018-05-13T14:39:49.758Z,57.07
2018-05-13T14:44:52.276Z,54.50
2018-05-13T14:49:54.790Z,57.40
2018-05-13T14:54:58.060Z,53.50
2018-05-13T15:00:00.619Z,47.60
2018-05-13T15:05:03.239Z,49.73
2018-05-13T15:10:05.776Z,45.00
2018-05-13T15:15:08.308Z,44.87
2018-05-13T15:20:11.044Z,44.73
2018-05-13T15:25:13.574Z,40.67
2018-05-13T15:30:22.228Z,37.70
2018-05-13T15:35:25.512Z,35.80
2018-05-13T15:40:28.020Z,36.53
2018-05-13T15:45:31.307Z,35.90
2018-05-13T15:50:33.851Z,33.43
2018-05-13T15:55:36.377Z,35.50
2018-05-13T16:00:38.901Z,33.20
2018-05-13T16:05:41.434Z,29.00
2018-05-13T16:10:43.956Z,32.60
2018-05-13T16:15:46.480Z,30.07
2018-05-13T16:20:49.263Z,31.40
2018-05-13T16:25:52.603Z,34.90
2018-05-13T16:30:55.898Z,28.30
2018-05-13T16:35:58.426Z,28.03
2018-05-13T16:41:01.530Z,28.17
2018-05-13T16:46:04.816Z,25.27
2018-05-13T16:51:07.360Z,28.03
2018-05-13T16:56:09.884Z,27.90
2018-05-13T17:01:12.383Z,29.73
2018-05-13T17:06:14.903Z,30.07
2018-05-13T17:11:18.196Z,25.90
2018-05-13T17:16:20.716Z,28.73
2018-05-13T17:21:23.237Z,25.23
2018-05-13T17:26:25.734Z,26.07
2018-05-13T17:31:28.252Z,26.20
2018-05-13T17:36:30.759Z,24.80
2018-05-13T17:41:33.276Z,25.70
2018-05-13T17:46:36.560Z,27.17
2018-05-13T17:51:39.067Z,27.77
2018-05-13T17:56:42.339Z,28.63
2018-05-13T18:01:44.860Z,26.90
2018-05-13T18:06:47.415Z,24.57
2018-05-13T18:11:50.668Z,28.37
2018-05-13T18:16:53.224Z,28.27
2018-05-13T18:21:55.744Z,29.43
2018-05-13T18:26:58.252Z,30.00
2018-05-13T18:32:00.772Z,27.20
2018-05-13T18:37:03.287Z,32.10
2018-05-13T18:42:05.785Z,28.33
2018-05-13T18:47:08.323Z,29.33
2018-05-13T18:52:10.840Z,25.83
2018-05-13T18:57:13.352Z,26.20
2018-05-13T19:02:15.871Z,24.50
2018-05-13T19:07:18.383Z,24.63
2018-05-13T19:12:20.927Z,25.60
2018-05-13T19:17:23.387Z,22.00
2018-05-13T19:22:26.672Z,22.07
2018-05-13T19:27:29.179Z,19.80
2018-05-13T19:32:31.704Z,21.90
2018-05-13T19:37:34.983Z,21.93
2018-05-13T19:42:37.502Z,20.70
2018-05-13T19:47:40.784Z,19.97
2018-05-13T19:52:43.331Z,19.17
2018-05-13T19:57:45.853Z,19.60
2018-05-13T20:02:48.448Z,19.93
2018-05-13T20:07:50.884Z,20.80
2018-05-13T20:12:54.161Z,21.03
2018-05-13T20:17:56.684Z,21.33
2018-05-13T20:23:11.911Z,19.13
2018-05-13T20:28:14.411Z,19.70
2018-05-13T20:33:16.929Z,18.60
2018-05-13T20:38:19.428Z,20.63
2018-05-13T20:43:21.930Z,19.00
2018-05-13T20:48:24.465Z,19.80
2018-05-13T20:53:26.984Z,19.33
2018-05-13T20:58:29.499Z,23.27
2018-05-13T21:03:32.021Z,20.73
2018-05-13T21:08:35.293Z,20.77
2018-05-13T21:13:37.794Z,22.57
2018-05-13T21:18:40.302Z,22.27
2018-05-13T21:23:42.835Z,20.93
2018-05-13T21:28:45.348Z,20.60
2018-05-13T21:33:47.855Z,19.83
2018-05-13T21:38:50.371Z,20.50
2018-05-13T21:43:52.900Z,20.80
2018-05-13T21:48:55.417Z,22.23
2018-05-13T21:53:57.930Z,22.93
2018-05-13T21:59:00.460Z,25.00
2018-05-13T22:04:03.719Z,22.27
2018-05-13T22:09:06.220Z,21.43
2018-05-13T22:14:08.736Z,23.40
2018-05-13T22:19:11.248Z,24.00
2018-05-13T22:24:14.540Z,24.67
2018-05-13T22:29:17.051Z,28.57
2018-05-13T22:34:19.556Z,24.70
2018-05-13T22:39:22.815Z,27.03
2018-05-13T22:44:25.311Z,25.80
2018-05-13T22:49:27.811Z,26.07
2018-05-13T22:54:30.311Z,27.23
2018-05-13T22:59:32.824Z,27.37
2018-05-13T23:04:35.328Z,26.90
2018-05-13T23:09:38.608Z,26.20
2018-05-13T23:14:41.107Z,27.27
2018-05-13T23:19:43.616Z,27.97
2018-05-13T23:24:46.900Z,29.50
2018-05-13T23:29:49.408Z,27.50
2018-05-13T23:34:51.919Z,24.40
2018-05-13T23:39:55.196Z,28.20
2018-05-13T23:44:57.700Z,27.30
2018-05-13T23:50:00.213Z,27.33
2018-05-13T23:55:03.483Z,25.70
